createdAt,value
2022-08-17T00:00:34.570Z,57.70
2022-08-17T00:03:38.181Z,58.00
2022-08-17T00:06:12.256Z,57.94
2022-08-17T00:08:47.891Z,57.82
2022-08-17T00:11:28.836Z,58.25
2022-08-17T00:14:02.314Z,58.10
2022-08-17T00:16:56.253Z,58.34
2022-08-17T00:19:26.530Z,58.78
2022-08-17T00:22:33.123Z,58.24
2022-08-17T00:24:46.083Z,58.59
2022-08-17T00:27:13.647Z,58.42
2022-08-17T00:29:41.402Z,58.50
2022-08-17T00:33:14.624Z,58.77
2022-08-17T00:34:56.561Z,58.82
2022-08-17T00:37:24.308Z,59.34
2022-08-17T00:39:51.741Z,58.92
2022-08-17T00:42:19.768Z,59.33
2022-08-17T00:44:47.796Z,59.08
2022-08-17T00:47:15.437Z,59.14
2022-08-17T00:49:42.901Z,59.50
2022-08-17T00:52:17.224Z,59.29
2022-08-17T00:54:49.313Z,59.47
2022-08-17T00:57:23.749Z,59.53
2022-08-17T01:00:01.926Z,59.50
2022-08-17T01:02:42.686Z,59.75
2022-08-17T01:05:23.901Z,59.64
2022-08-17T01:07:54.261Z,59.51
2022-08-17T01:11:00.145Z,59.62
2022-08-17T01:13:18.061Z,59.63
2022-08-17T01:16:03.313Z,59.67
2022-08-17T01:18:32.443Z,59.90
2022-08-17T01:21:05.394Z,59.65
2022-08-17T01:23:33.183Z,60.04
2022-08-17T01:26:02.385Z,59.97
2022-08-17T01:28:53.246Z,59.71
2022-08-17T01:31:20.965Z,59.83
2022-08-17T01:33:48.578Z,59.82
2022-08-17T01:36:15.917Z,59.84
2022-08-17T01:38:44.081Z,59.70
2022-08-17T01:41:15.806Z,59.71
2022-08-17T01:43:57.153Z,59.83
2022-08-17T01:46:31.135Z,59.42
2022-08-17T01:49:01.113Z,59.75
2022-08-17T01:51:33.073Z,59.67
2022-08-17T01:54:07.285Z,59.49
2022-08-17T01:56:37.272Z,59.52
2022-08-17T01:59:05.279Z,59.78
2022-08-17T02:01:34.920Z,59.83
2022-08-17T02:04:03.277Z,59.73
2022-08-17T02:06:52.558Z,59.72
2022-08-17T02:09:25.821Z,59.96
2022-08-17T02:11:59.082Z,59.88
2022-08-17T02:14:26.972Z,59.90
2022-08-17T02:16:54.678Z,59.83
2022-08-17T02:19:22.948Z,60.08
2022-08-17T02:21:53.079Z,60.11
2022-08-17T02:25:00.952Z,60.13
2022-08-17T02:27:19.713Z,59.94
2022-08-17T02:29:47.646Z,60.06
2022-08-17T02:32:27.372Z,59.99
2022-08-17T02:34:55.717Z,59.85
2022-08-17T02:37:23.234Z,60.17
2022-08-17T02:39:50.590Z,59.90
2022-08-17T02:42:18.770Z,59.74
2022-08-17T02:44:46.022Z,59.94
2022-08-17T02:47:13.454Z,60.10
2022-08-17T02:49:46.293Z,59.87
2022-08-17T02:52:43.714Z,60.05
2022-08-17T02:55:23.297Z,59.55
2022-08-17T02:57:52.078Z,59.18
2022-08-17T03:00:22.680Z,58.69
2022-08-17T03:02:52.215Z,58.50
2022-08-17T03:05:22.179Z,57.98
2022-08-17T03:07:50.099Z,56.80
2022-08-17T03:10:18.324Z,54.95
2022-08-17T03:12:46.671Z,53.71
2022-08-17T03:15:17.819Z,52.74
2022-08-17T03:17:45.838Z,51.46
2022-08-17T03:20:14.022Z,50.37
2022-08-17T03:22:53.094Z,49.90
2022-08-17T03:25:27.430Z,48.27
2022-08-17T03:27:56.940Z,47.19
2022-08-17T03:30:26.105Z,46.34
2022-08-17T03:32:56.309Z,45.30
2022-08-17T03:35:27.143Z,44.57
2022-08-17T03:38:00.010Z,44.18
2022-08-17T03:40:58.108Z,43.85
2022-08-17T03:43:18.504Z,43.03
2022-08-17T03:46:04.486Z,41.95
2022-08-17T03:48:52.033Z,42.02
2022-08-17T03:51:40.687Z,43.69
2022-08-17T03:54:27.712Z,42.10
2022-08-17T03:57:04.757Z,40.74
2022-08-17T03:59:33.681Z,39.41
2022-08-17T04:02:05.179Z,39.66
2022-08-17T04:04:33.393Z,38.94
2022-08-17T04:07:01.069Z,38.36
2022-08-17T04:09:28.595Z,37.76
2022-08-17T04:11:57.433Z,37.29
2022-08-17T04:14:33.921Z,36.31
2022-08-17T04:17:01.309Z,36.81
2022-08-17T04:19:28.656Z,35.60
2022-08-17T04:21:58.145Z,35.04
2022-08-17T04:24:26.550Z,33.88
2022-08-17T04:26:54.757Z,33.75
2022-08-17T04:29:22.543Z,33.38
2022-08-17T04:31:49.739Z,33.07
2022-08-17T04:34:19.861Z,31.85
2022-08-17T04:36:50.229Z,31.04
2022-08-17T04:39:17.902Z,30.67
2022-08-17T04:42:03.854Z,30.97
2022-08-17T04:44:37.703Z,30.95
2022-08-17T04:47:07.404Z,29.93
2022-08-17T04:49:38.154Z,29.65
2022-08-17T04:52:05.369Z,29.88
2022-08-17T04:54:32.972Z,30.25
2022-08-17T04:57:00.568Z,29.36
2022-08-17T04:59:27.858Z,29.02
2022-08-17T05:01:55.342Z,28.52
2022-08-17T05:04:34.299Z,27.61
2022-08-17T05:07:04.352Z,27.25
2022-08-17T05:09:32.326Z,26.35
2022-08-17T05:12:03.478Z,25.96
2022-08-17T05:14:33.377Z,24.92
2022-08-17T05:17:07.208Z,24.98
2022-08-17T05:19:38.751Z,25.72
2022-08-17T05:22:06.622Z,24.93
2022-08-17T05:24:38.722Z,24.11
2022-08-17T05:27:10.756Z,24.11
2022-08-17T05:29:46.360Z,23.36
2022-08-17T05:32:47.896Z,22.13
2022-08-17T05:35:02.248Z,22.05
2022-08-17T05:37:30.126Z,22.21
2022-08-17T05:40:00.136Z,22.22
2022-08-17T05:42:27.643Z,21.78
2022-08-17T05:44:58.282Z,22.54
2022-08-17T05:47:27.350Z,22.29
2022-08-17T05:49:55.247Z,21.55
2022-08-17T05:52:29.840Z,20.79
2022-08-17T05:54:57.296Z,22.60
2022-08-17T05:57:33.186Z,20.95
2022-08-17T06:00:07.699Z,20.57
2022-08-17T06:03:19.305Z,20.51
2022-08-17T06:05:58.697Z,20.32
2022-08-17T06:08:51.941Z,20.56
2022-08-17T06:11:31.587Z,21.22
2022-08-17T06:14:34.728Z,20.81
2022-08-17T06:17:09.750Z,20.72
2022-08-17T06:19:37.625Z,20.58
2022-08-17T06:22:06.649Z,20.47
2022-08-17T06:24:43.367Z,20.00
2022-08-17T06:27:22.113Z,20.22
2022-08-17T06:30:01.413Z,19.93
2022-08-17T06:32:31.451Z,19.26
2022-08-17T06:35:00.669Z,19.14
2022-08-17T06:37:28.094Z,19.34
2022-08-17T06:40:28.368Z,19.72
2022-08-17T06:43:13.163Z,20.05
2022-08-17T06:45:50.529Z,20.11
2022-08-17T06:48:25.157Z,19.69
2022-08-17T06:50:55.082Z,20.57
2022-08-17T06:53:35.969Z,20.55
2022-08-17T06:56:12.246Z,20.12
2022-08-17T06:58:43.777Z,20.16
2022-08-17T07:01:16.620Z,19.43
2022-08-17T07:03:54.934Z,19.56
2022-08-17T07:06:30.074Z,18.99
2022-08-17T07:09:19.604Z,18.16
2022-08-17T07:11:58.714Z,18.10
2022-08-17T07:14:37.027Z,18.04
2022-08-17T07:17:11.308Z,17.63
2022-08-17T07:19:45.968Z,17.35
2022-08-17T07:22:57.722Z,17.72
2022-08-17T07:25:30.882Z,17.06
2022-08-17T07:28:02.565Z,17.19
2022-08-17T07:30:51.797Z,17.45
2022-08-17T07:33:26.134Z,16.94
2022-08-17T07:35:54.447Z,17.59
2022-08-17T07:38:30.785Z,18.52
2022-08-17T07:41:01.660Z,18.62
2022-08-17T07:43:41.253Z,18.93
2022-08-17T07:46:30.585Z,18.32
2022-08-17T07:49:19.802Z,17.47
2022-08-17T07:51:47.555Z,17.60
2022-08-17T07:54:21.706Z,17.45
2022-08-17T07:56:56.940Z,17.60
2022-08-17T07:59:36.043Z,17.22
2022-08-17T08:02:21.552Z,17.40
2022-08-17T08:05:48.577Z,17.49
2022-08-17T08:08:27.418Z,17.53
2022-08-17T08:11:10.967Z,18.54
2022-08-17T08:13:44.144Z,18.39
2022-08-17T08:16:17.434Z,18.46
2022-08-17T08:18:54.277Z,19.10
2022-08-17T08:21:29.517Z,20.38
2022-08-17T08:24:24.632Z,22.27
2022-08-17T08:27:08.235Z,23.75
2022-08-17T08:30:05.201Z,24.25
2022-08-17T08:32:48.237Z,25.24
2022-08-17T08:35:23.624Z,26.00
2022-08-17T08:38:08.710Z,26.12
2022-08-17T08:41:33.515Z,27.34
2022-08-17T08:45:00.177Z,28.39
2022-08-17T08:47:45.410Z,27.62
2022-08-17T08:50:38.171Z,28.21
2022-08-17T08:53:28.269Z,28.04
2022-08-17T08:55:58.799Z,28.96
2022-08-17T08:59:04.447Z,28.71
2022-08-17T09:01:48.133Z,28.99
2022-08-17T09:05:13.393Z,28.94
2022-08-17T09:07:47.543Z,29.78
2022-08-17T09:10:30.385Z,30.00
2022-08-17T09:12:57.917Z,30.21
2022-08-17T09:15:32.423Z,30.29
2022-08-17T09:19:01.516Z,30.02
2022-08-17T09:21:06.306Z,30.00
2022-08-17T09:23:42.667Z,30.18
2022-08-17T09:26:23.119Z,30.72
2022-08-17T09:29:01.800Z,30.46
2022-08-17T09:31:46.494Z,30.55
2022-08-17T09:34:32.102Z,30.52
2022-08-17T09:37:39.416Z,30.68
2022-08-17T09:40:09.845Z,30.97
2022-08-17T09:42:52.779Z,30.85
2022-08-17T09:46:02.400Z,30.99
2022-08-17T09:48:46.029Z,31.13
2022-08-17T09:51:18.298Z,31.43
2022-08-17T09:53:46.077Z,31.00
2022-08-17T09:56:19.212Z,31.12
2022-08-17T09:58:56.609Z,31.29
2022-08-17T10:01:43.735Z,31.35
2022-08-17T10:04:39.622Z,31.31
2022-08-17T10:07:20.124Z,31.53
2022-08-17T10:09:59.499Z,31.63
2022-08-17T10:12:38.845Z,31.94
2022-08-17T10:15:25.250Z,31.84
2022-08-17T10:18:10.983Z,32.05
2022-08-17T10:20:44.114Z,31.80
2022-08-17T10:23:47.389Z,31.21
2022-08-17T10:26:25.098Z,31.63
2022-08-17T10:29:17.150Z,31.78
2022-08-17T10:31:50.349Z,31.41
2022-08-17T10:34:46.659Z,31.69
2022-08-17T10:37:20.196Z,31.65
2022-08-17T10:40:09.871Z,31.69
2022-08-17T10:42:53.957Z,31.47
2022-08-17T10:46:09.433Z,31.75
2022-08-17T10:48:40.738Z,31.50
2022-08-17T10:51:12.856Z,31.49
2022-08-17T10:53:49.787Z,31.87
2022-08-17T10:56:22.915Z,31.82
2022-08-17T10:59:01.169Z,31.58
2022-08-17T11:01:38.298Z,31.94
2022-08-17T11:04:18.276Z,31.44
2022-08-17T11:07:02.819Z,31.39
2022-08-17T11:10:05.476Z,31.72
2022-08-17T11:13:03.420Z,31.66
2022-08-17T11:15:58.725Z,31.53
2022-08-17T11:18:52.879Z,31.77
2022-08-17T11:21:37.766Z,31.95
2022-08-17T11:24:14.462Z,31.53
2022-08-17T11:27:01.298Z,31.74
2022-08-17T11:29:36.975Z,31.42
2022-08-17T11:32:28.049Z,31.31
2022-08-17T11:35:39.239Z,31.19
2022-08-17T11:38:16.880Z,31.30
2022-08-17T11:41:22.018Z,31.30
2022-08-17T11:44:03.116Z,31.76
2022-08-17T11:47:14.357Z,31.33
2022-08-17T11:50:16.786Z,31.16
2022-08-17T11:52:50.096Z,31.44
2022-08-17T11:55:35.662Z,31.58
2022-08-17T11:58:26.353Z,31.59
2022-08-17T12:01:06.148Z,31.70
2022-08-17T12:03:34.368Z,31.31
2022-08-17T12:06:40.162Z,31.18
2022-08-17T12:09:21.493Z,31.54
2022-08-17T12:12:14.614Z,31.77
2022-08-17T12:17:52.057Z,31.33
2022-08-17T12:20:32.631Z,31.62
2022-08-17T12:23:31.024Z,31.34
2022-08-17T12:26:12.000Z,31.11
2022-08-17T12:28:45.678Z,30.89
2022-08-17T12:31:37.646Z,31.31
2022-08-17T12:34:05.687Z,31.03
2022-08-17T12:36:34.189Z,31.51
2022-08-17T12:39:14.330Z,30.72
2022-08-17T12:41:51.542Z,31.02
2022-08-17T12:44:29.893Z,30.99
2022-08-17T12:47:21.932Z,31.13
2022-08-17T12:49:53.192Z,30.70
2022-08-17T12:52:25.453Z,30.59
2022-08-17T12:54:56.338Z,30.27
2022-08-17T12:57:45.909Z,30.70
2022-08-17T13:00:22.586Z,30.23
2022-08-17T13:03:00.703Z,30.42
2022-08-17T13:05:41.467Z,30.45
2022-08-17T13:08:18.507Z,30.60
2022-08-17T13:10:57.535Z,30.19
2022-08-17T13:13:31.334Z,30.26
2022-08-17T13:16:03.309Z,30.37
2022-08-17T13:18:39.274Z,30.14
2022-08-17T13:21:33.613Z,30.16
2022-08-17T13:24:19.418Z,30.14
2022-08-17T13:26:57.562Z,30.30
2022-08-17T13:29:33.627Z,30.49
2022-08-17T13:32:10.707Z,30.43
2022-08-17T13:34:56.163Z,30.58
2022-08-17T13:37:36.919Z,30.41
2022-08-17T13:40:10.757Z,30.63
2022-08-17T13:42:52.846Z,30.78
2022-08-17T13:45:35.638Z,30.62
2022-08-17T13:48:11.163Z,30.74
2022-08-17T13:50:47.185Z,30.76
2022-08-17T13:53:18.614Z,30.97
2022-08-17T13:55:53.382Z,30.77
2022-08-17T13:58:28.885Z,30.84
2022-08-17T14:00:57.051Z,30.82
2022-08-17T14:03:25.125Z,31.02
2022-08-17T14:05:53.706Z,31.07
2022-08-17T14:08:21.478Z,31.00
2022-08-17T14:10:58.703Z,31.20
2022-08-17T14:13:26.400Z,31.09
2022-08-17T14:15:56.563Z,31.11
2022-08-17T14:18:55.426Z,30.96
2022-08-17T14:21:13.278Z,31.04
2022-08-17T14:23:41.360Z,31.40
2022-08-17T14:26:16.536Z,31.67
2022-08-17T14:28:53.591Z,31.18
2022-08-17T14:31:24.102Z,30.93
2022-08-17T14:33:52.385Z,31.76
2022-08-17T14:36:19.797Z,31.67
2022-08-17T14:38:47.398Z,31.56
2022-08-17T14:41:20.065Z,31.55
2022-08-17T14:43:50.971Z,31.37
2022-08-17T14:46:18.702Z,31.35
2022-08-17T14:48:46.832Z,31.46
2022-08-17T14:51:14.767Z,31.31
2022-08-17T14:53:43.471Z,31.48
2022-08-17T14:56:10.973Z,31.57
2022-08-17T14:58:39.146Z,31.56
2022-08-17T15:01:20.281Z,31.32
2022-08-17T15:03:47.890Z,31.44
2022-08-17T15:06:16.501Z,31.75
2022-08-17T15:08:44.524Z,31.46
2022-08-17T15:11:14.551Z,31.48
2022-08-17T15:13:52.926Z,31.76
2022-08-17T15:16:20.933Z,31.56
2022-08-17T15:18:49.235Z,31.68
2022-08-17T15:21:16.767Z,31.56
2022-08-17T15:23:44.359Z,31.74
2022-08-17T15:26:12.146Z,31.93
2022-08-17T15:28:39.431Z,32.01
2022-08-17T15:31:07.054Z,31.94
2022-08-17T15:33:34.439Z,31.95
2022-08-17T15:36:04.904Z,31.99
2022-08-17T15:38:39.869Z,32.38
2022-08-17T15:41:15.597Z,31.88
2022-08-17T15:43:43.967Z,32.09
2022-08-17T15:46:17.654Z,32.14
2022-08-17T15:48:51.181Z,32.13
2022-08-17T15:51:33.592Z,32.35
2022-08-17T15:54:19.172Z,32.24
2022-08-17T15:56:51.179Z,32.56
2022-08-17T15:59:19.823Z,32.75
2022-08-17T16:03:01.563Z,32.74
2022-08-17T16:04:35.343Z,33.02
2022-08-17T16:07:05.880Z,32.96
2022-08-17T16:09:33.533Z,33.19
2022-08-17T16:12:13.502Z,33.17
2022-08-17T16:14:40.963Z,33.45
2022-08-17T16:17:15.587Z,33.42
2022-08-17T16:19:57.800Z,33.16
2022-08-17T16:22:33.125Z,33.39
2022-08-17T16:25:05.075Z,33.27
2022-08-17T16:27:33.181Z,33.77
2022-08-17T16:30:01.213Z,33.85
2022-08-17T16:32:31.922Z,33.30
2022-08-17T16:35:11.239Z,33.64
2022-08-17T16:37:41.795Z,33.74
2022-08-17T16:40:15.732Z,33.81
2022-08-17T16:42:48.852Z,33.75
2022-08-17T16:45:28.611Z,33.59
2022-08-17T16:48:01.805Z,34.05
2022-08-17T16:50:29.255Z,34.02
2022-08-17T16:53:08.301Z,34.02
2022-08-17T16:55:35.912Z,34.32
2022-08-17T16:58:05.150Z,34.33
2022-08-17T17:00:34.080Z,34.37
2022-08-17T17:03:19.940Z,34.41
2022-08-17T17:06:25.320Z,34.57
2022-08-17T17:09:01.149Z,34.73
2022-08-17T17:11:51.396Z,35.00
2022-08-17T17:14:32.144Z,34.85
2022-08-17T17:17:21.323Z,34.84
2022-08-17T17:20:13.442Z,35.03
2022-08-17T17:22:50.536Z,35.35
2022-08-17T17:25:17.938Z,35.31
2022-08-17T17:28:25.324Z,35.54
2022-08-17T17:31:14.172Z,35.47
2022-08-17T17:33:49.469Z,35.43
2022-08-17T17:36:30.007Z,35.81
2022-08-17T17:39:06.871Z,35.75
2022-08-17T17:41:49.331Z,35.75
2022-08-17T17:44:23.348Z,36.12
2022-08-17T17:46:58.112Z,36.07
2022-08-17T17:49:30.084Z,36.15
2022-08-17T17:52:13.384Z,36.31
2022-08-17T17:55:08.534Z,36.89
2022-08-17T17:57:54.730Z,36.87
2022-08-17T18:00:24.733Z,36.80
2022-08-17T18:03:01.079Z,37.13
2022-08-17T18:05:37.658Z,37.18
2022-08-17T18:08:32.362Z,37.57
2022-08-17T18:11:04.695Z,37.44
2022-08-17T18:14:02.749Z,37.40
2022-08-17T18:16:33.297Z,37.73
2022-08-17T18:19:01.344Z,37.45
2022-08-17T18:21:44.395Z,37.70
2022-08-17T18:24:13.006Z,37.74
2022-08-17T18:26:42.083Z,37.86
2022-08-17T18:29:36.194Z,37.69
2022-08-17T18:32:16.334Z,37.88
2022-08-17T18:34:48.009Z,37.61
2022-08-17T18:37:45.448Z,38.47
2022-08-17T18:40:22.048Z,38.11
2022-08-17T18:43:03.215Z,38.89
2022-08-17T18:45:56.193Z,39.40
2022-08-17T18:48:33.887Z,39.36
2022-08-17T18:51:21.462Z,39.08
2022-08-17T18:54:24.472Z,39.68
2022-08-17T18:57:28.189Z,39.61
2022-08-17T18:59:56.094Z,39.33
2022-08-17T19:02:43.321Z,39.52
2022-08-17T19:05:25.685Z,39.34
2022-08-17T19:07:53.440Z,39.73
2022-08-17T19:10:46.544Z,39.59
2022-08-17T19:13:24.174Z,40.04
2022-08-17T19:16:11.752Z,40.11
2022-08-17T19:19:08.910Z,39.88
2022-08-17T19:21:49.514Z,39.97
2022-08-17T19:24:22.932Z,40.25
2022-08-17T19:27:16.089Z,40.17
2022-08-17T19:29:57.754Z,40.05
2022-08-17T19:32:29.661Z,40.29
2022-08-17T19:34:58.227Z,40.13
2022-08-17T19:37:25.614Z,40.50
2022-08-17T19:40:05.472Z,40.17
2022-08-17T19:42:47.361Z,40.50
2022-08-17T19:49:41.448Z,40.40
2022-08-17T19:52:30.458Z,41.19
2022-08-17T19:55:09.272Z,40.87
2022-08-17T19:57:47.841Z,40.84
2022-08-17T20:00:22.082Z,41.83
2022-08-17T20:03:25.910Z,41.54
2022-08-17T20:06:15.083Z,41.89
2022-08-17T20:08:56.831Z,41.89
2022-08-17T20:11:45.509Z,42.40
2022-08-17T20:14:24.205Z,42.21
2022-08-17T20:16:51.928Z,41.91
2022-08-17T20:19:22.522Z,42.75
2022-08-17T20:22:04.619Z,42.89
2022-08-17T20:24:44.080Z,42.30
2022-08-17T20:27:27.987Z,42.94
2022-08-17T20:30:39.338Z,43.42
2022-08-17T20:33:41.548Z,43.61
2022-08-17T20:36:16.268Z,43.68
2022-08-17T20:38:55.839Z,43.60
2022-08-17T20:41:27.784Z,43.35
2022-08-17T20:43:57.455Z,44.04
2022-08-17T20:46:39.310Z,44.37
2022-08-17T20:49:09.541Z,44.74
2022-08-17T20:52:07.924Z,44.58
2022-08-17T20:54:55.022Z,45.05
2022-08-17T20:57:37.360Z,45.46
2022-08-17T21:00:15.872Z,45.94
2022-08-17T21:02:46.205Z,45.95
2022-08-17T21:05:34.597Z,46.42
2022-08-17T21:08:20.833Z,46.46
2022-08-17T21:14:13.218Z,46.82
2022-08-17T21:17:22.924Z,46.26
2022-08-17T21:20:17.440Z,46.79
2022-08-17T21:23:06.248Z,46.84
2022-08-17T21:25:48.333Z,46.64
2022-08-17T21:28:15.938Z,46.37
2022-08-17T21:30:55.760Z,47.15
2022-08-17T21:33:36.519Z,46.89
2022-08-17T21:36:17.496Z,47.55
2022-08-17T21:38:47.959Z,47.59
2022-08-17T21:41:25.280Z,47.32
2022-08-17T21:43:56.050Z,47.47
2022-08-17T21:46:38.007Z,47.25
2022-08-17T21:49:13.875Z,47.89
2022-08-17T21:51:55.603Z,48.47
2022-08-17T21:54:49.622Z,48.35
2022-08-17T21:57:22.750Z,48.60
2022-08-17T22:00:00.694Z,49.06
2022-08-17T22:02:41.988Z,49.25
2022-08-17T22:05:13.350Z,49.43
2022-08-17T22:07:47.241Z,49.34
2022-08-17T22:10:32.039Z,49.74
2022-08-17T22:13:19.881Z,49.75
2022-08-17T22:16:15.653Z,50.14
2022-08-17T22:18:58.435Z,50.28
2022-08-17T22:21:26.684Z,50.59
2022-08-17T22:24:14.527Z,50.67
2022-08-17T22:27:02.288Z,50.50
2022-08-17T22:29:47.036Z,51.24
2022-08-17T22:32:36.424Z,51.38
2022-08-17T22:35:19.533Z,51.45
2022-08-17T22:37:47.534Z,51.86
2022-08-17T22:40:30.599Z,51.95
2022-08-17T22:43:00.926Z,52.12
2022-08-17T22:45:30.624Z,52.35
2022-08-17T22:48:02.525Z,52.39
2022-08-17T22:50:33.158Z,52.67
2022-08-17T22:53:22.414Z,52.87
2022-08-17T22:56:12.547Z,53.12
2022-08-17T22:59:08.033Z,53.02
2022-08-17T23:01:35.759Z,53.26
2022-08-17T23:04:12.418Z,53.43
2022-08-17T23:06:44.420Z,53.61
2022-08-17T23:09:11.978Z,53.92
2022-08-17T23:11:49.786Z,54.11
2022-08-17T23:14:19.964Z,54.32
2022-08-17T23:16:50.475Z,54.43
2022-08-17T23:19:20.405Z,54.67
2022-08-17T23:21:50.632Z,55.00
2022-08-17T23:24:26.168Z,55.27
2022-08-17T23:26:57.248Z,55.37
2022-08-17T23:29:26.171Z,55.68
2022-08-17T23:31:54.082Z,55.74
2022-08-17T23:34:21.633Z,55.84
2022-08-17T23:36:52.643Z,56.03
2022-08-17T23:39:28.026Z,56.00
2022-08-17T23:41:58.370Z,55.92
2022-08-17T23:44:27.163Z,55.38
2022-08-17T23:46:55.137Z,54.99
2022-08-17T23:49:23.626Z,55.11
2022-08-17T23:51:55.371Z,55.37
2022-08-17T23:54:33.679Z,55.42
2022-08-17T23:57:02.904Z,54.80
2022-08-17T23:59:31.566Z,54.74
